.
WxDataArchive / Data Records for 2010-06-29
2010-06-28 June 2010 2010-06-30

Data Records for Tuesday, 29 June 2010

Time	Temp	Chill	HIndex	Humid	Dewpt	 Wind 	HiWind	WindDir	Rain 	Barom 
-----	----	-----	------	-----	-----	------	------	-------	-----	----- 
00:00	69.3	69.3	69.3	74	60.6	0	0	---	0.00	29.835 
00:05	69.3	69.3	69.3	73	60.3	0	0	---	0.00	29.835 
00:10	69.3	69.3	69.3	73	60.3	0	0	---	0.00	29.835 
00:15	69.3	69.3	69.3	73	60.3	0	0	---	0.00	29.838 
00:20	69.3	69.3	69.3	73	60.3	0	0	---	0.00	29.838 
00:25	69.4	69.4	69.4	73	60.4	0	0	---	0.00	29.838 
00:30	69.4	69.4	69.4	73	60.4	0	0	---	0.00	29.839 
00:35	69.4	69.4	69.4	73	60.4	0	0	---	0.00	29.839 
00:40	69.6	69.6	69.6	74	60.9	0	0	---	0.00	29.839 
00:45	69.6	69.6	69.6	73	60.6	0	0	---	0.00	29.838 
00:50	69.6	69.6	69.6	73	60.6	0	0	---	0.00	29.838 
00:55	69.8	69.8	69.8	73	60.7	0	0	---	0.00	29.838 
01:00	69.9	69.9	69.9	72	60.4	0	0	---	0.00	29.839 
01:05	70.1	70.1	70.1	72	60.6	0	0	---	0.00	29.839 
01:10	70.3	70.3	70.3	72	60.8	0	0	---	0.00	29.839 
01:15	70.4	70.4	70.4	70	60.1	0	0	---	0.00	29.846 
01:20	70.6	70.6	70.6	68	59.5	0	0	---	0.00	29.846 
01:25	70.8	70.8	70.8	67	59.3	0	1	292	0.00	29.846 
01:30	70.9	70.9	70.9	67	59.4	0	0	---	0.00	29.851 
01:35	71.1	71.1	71.1	67	59.6	0	0	---	0.00	29.851 
01:40	71.1	71.1	71.1	67	59.6	0	0	---	0.00	29.851 
01:45	71.1	71.1	71.1	68	60.0	0	0	---	0.00	29.850 
01:50	71.1	71.1	71.1	67	59.6	0	0	---	0.00	29.850 
01:55	70.9	70.9	70.9	68	59.8	0	0	---	0.00	29.850 
02:00	70.8	70.8	70.8	68	59.7	0	0	---	0.00	29.851 
02:05	70.6	70.6	70.6	69	59.9	0	0	---	0.00	29.851 
02:10	70.4	70.4	70.4	69	59.7	0	0	---	0.00	29.851 
02:15	70.3	70.3	70.3	72	60.8	0	0	---	0.00	29.853 
02:20	70.3	70.3	70.3	70	60.0	0	0	---	0.00	29.853 
02:25	70.3	70.3	70.3	69	59.6	0	0	---	0.00	29.853 
02:30	70.3	70.3	70.3	69	59.6	0	0	---	0.00	29.857 
02:35	70.3	70.3	70.3	69	59.6	0	1	292	0.00	29.857 
02:40	70.3	70.3	70.3	69	59.6	0	0	---	0.00	29.857 
02:45	70.3	70.3	70.3	69	59.6	0	1	292	0.00	29.865 
02:50	70.1	70.1	70.1	69	59.4	0	0	---	0.00	29.865 
02:55	70.1	70.1	70.1	70	59.8	0	1	292	0.00	29.865 
03:00	69.9	69.9	69.9	70	59.7	0	1	292	0.00	29.867 
03:05	69.8	69.8	69.8	71	60.0	0	0	---	0.00	29.867 
03:10	69.6	69.6	69.6	72	60.2	0	1	292	0.00	29.867 
03:15	69.4	69.4	69.4	72	60.0	0	2	292	0.00	29.870 
03:20	69.4	69.4	69.4	72	60.0	0	2	292	0.00	29.870 
03:25	69.3	69.3	69.3	73	60.3	0	0	---	0.00	29.870 
03:30	69.3	69.3	69.3	73	60.3	0	1	292	0.00	29.876 
03:35	69.1	69.1	69.1	73	60.1	0	1	292	0.00	29.876 
03:40	68.9	68.9	68.9	72	59.5	0	1	292	0.00	29.876 
03:45	68.9	68.9	68.9	71	59.1	0	1	292	0.00	29.884 
03:50	68.8	68.8	68.8	72	59.4	0	2	112	0.00	29.884 
03:55	68.8	68.8	68.8	73	59.8	0	2	112	0.00	29.884 
04:00	68.6	68.6	68.6	73	59.6	0	3	112	0.00	29.888 
04:05	68.4	68.4	68.4	73	59.4	1	3	112	0.00	29.888 
04:10	68.3	68.3	68.3	73	59.3	0	5	112	0.00	29.888 
04:15	68.1	68.1	68.1	73	59.1	0	2	112	0.00	29.897 
04:20	67.9	67.9	67.9	74	59.3	0	1	112	0.00	29.897 
04:25	67.6	67.6	67.6	74	59.0	0	3	112	0.00	29.897 
04:30	67.4	67.4	67.4	74	58.8	0	3	112	0.00	29.902 
04:35	67.3	67.3	67.3	74	58.7	0	3	135	0.00	29.902 
04:40	67.1	67.1	67.1	74	58.5	0	1	135	0.00	29.902 
04:45	66.9	66.9	66.9	75	58.7	0	1	135	0.00	29.906 
04:50	66.8	66.8	66.8	76	59.0	0	3	180	0.00	29.906 
04:55	66.6	66.6	66.6	76	58.8	1	9	112	0.00	29.906 
05:00	66.4	66.4	66.4	76	58.6	0	2	270	0.00	29.917 
05:05	66.1	66.1	66.1	75	57.9	1	6	135	0.00	29.917 
05:10	65.8	65.8	65.8	75	57.6	0	2	45	0.00	29.917 
05:15	65.5	65.5	65.5	74	57.0	0	3	270	0.00	29.923 
05:20	65.2	65.2	65.2	73	56.3	0	2	270	0.00	29.923 
05:25	65.0	65.0	65.0	72	55.7	0	1	248	0.00	29.923 
05:30	64.8	64.8	64.8	72	55.6	0	4	248	0.00	29.934 
05:35	64.5	64.5	64.5	68	53.7	0	3	112	0.00	29.934 
05:40	64.3	64.3	64.3	67	53.1	0	2	112	0.00	29.934 
05:45	64.3	64.3	64.3	66	52.7	0	1	112	0.00	29.940 
05:50	64.2	64.2	64.2	66	52.6	0	2	112	0.00	29.940 
05:55	64.0	64.0	64.0	67	52.8	0	1	112	0.00	29.940 
06:00	64.0	64.0	64.0	67	52.8	0	1	112	0.00	29.950 
06:05	63.9	63.9	63.9	68	53.1	0	1	112	0.00	29.950 
06:10	63.7	63.7	63.7	69	53.3	0	4	112	0.00	29.950 
06:15	63.7	63.7	63.7	69	53.3	0	3	158	0.00	29.961 
06:20	63.5	63.5	63.5	69	53.1	0	2	270	0.00	29.961 
06:25	63.5	63.5	63.5	69	53.1	0	4	90	0.00	29.961 
06:30	63.5	63.5	63.5	69	53.1	1	3	135	0.00	29.968 
06:35	63.4	63.4	63.4	70	53.4	0	3	135	0.00	29.968 
06:40	63.4	63.4	63.4	69	53.0	0	3	135	0.00	29.968 
06:45	63.4	63.4	63.4	70	53.4	0	3	135	0.00	29.972 
06:50	63.1	63.1	63.1	63	50.3	0	2	135	0.00	29.972 
06:55	63.1	63.1	63.1	65	51.1	0	1	135	0.00	29.972 
07:00	62.9	62.9	62.9	59	48.3	0	4	112	0.00	29.985 
07:05	62.9	62.9	62.9	58	47.9	0	3	112	0.00	29.985 
07:10	62.7	62.7	62.7	57	47.2	1	5	112	0.00	29.985 
07:15	62.7	62.7	62.7	58	47.7	0	3	112	0.00	29.988 
07:20	62.6	62.6	62.6	57	47.1	1	5	112	0.00	29.988 
07:25	62.6	62.6	62.6	57	47.1	1	4	90	0.00	29.988 
07:30	62.6	62.6	62.6	56	46.7	0	3	68	0.00	29.993 
07:35	62.6	62.6	62.6	57	47.1	0	2	112	0.00	29.993 
07:40	62.7	62.7	62.7	57	47.2	0	1	112	0.00	29.993 
07:45	62.7	62.7	62.7	56	46.8	1	3	112	0.00	30.004 
07:50	62.7	62.7	62.7	59	48.2	0	4	135	0.00	30.004 
07:55	62.9	62.9	62.9	60	48.8	0	3	135	0.00	30.004 
08:00	63.1	63.1	63.1	58	48.1	1	5	135	0.00	30.006 
08:05	63.1	63.1	63.1	59	48.5	0	3	135	0.00	30.006 
08:10	63.1	63.1	63.1	58	48.1	0	3	135	0.00	30.006 
08:15	63.1	63.1	63.1	56	47.1	0	3	135	0.00	30.019 
08:20	63.1	63.1	63.1	58	48.1	0	2	112	0.00	30.019 
08:25	63.2	63.2	63.2	59	48.6	0	2	112	0.00	30.019 
08:30	63.4	63.4	63.4	59	48.8	0	3	112	0.00	30.023 
08:35	63.5	63.5	63.5	57	48.0	0	1	90	0.00	30.023 
08:40	63.5	63.5	63.5	57	48.0	0	2	158	0.00	30.023 
08:45	63.5	63.5	63.5	55	47.0	0	3	158	0.00	30.032 
08:50	63.7	63.7	63.7	54	46.7	1	3	135	0.00	30.032 
08:55	63.9	63.9	63.9	56	47.9	1	4	135	0.00	30.032 
09:00	64.0	64.0	64.0	58	48.9	0	3	68	0.00	30.036 
09:05	64.2	64.2	64.2	57	48.6	0	2	68	0.00	30.036 
09:10	64.2	64.2	64.2	55	47.7	1	4	90	0.00	30.036 
09:15	64.7	64.7	64.7	58	49.6	0	3	90	0.00	30.040 
09:20	65.0	65.0	65.0	53	47.4	2	5	90	0.00	30.040 
09:25	65.6	65.6	65.6	53	48.0	1	5	112	0.00	30.040 
09:30	66.0	66.0	66.0	53	48.4	0	6	135	0.00	30.042 
09:35	66.4	66.4	66.4	52	48.2	1	4	68	0.00	30.042 
09:40	67.1	67.1	67.1	48	46.7	1	5	135	0.00	30.042 
09:45	67.8	67.8	67.8	50	48.5	1	5	112	0.00	30.046 
09:50	68.1	68.1	68.1	52	49.8	2	4	90	0.00	30.046 
09:55	68.4	68.4	68.4	49	48.5	0	2	112	0.00	30.046 
10:00	68.8	68.8	68.8	46	47.2	1	7	135	0.00	30.051 
10:05	69.3	69.3	69.3	48	48.8	1	4	90	0.00	30.051 
10:10	69.4	69.4	69.4	46	47.7	2	4	112	0.00	30.051 
10:15	69.1	69.1	69.1	45	46.9	3	9	112	0.00	30.052 
10:20	69.3	69.3	69.3	48	48.8	1	4	112	0.00	30.052 
10:25	69.4	69.4	69.4	46	47.7	1	3	135	0.00	30.052 
10:30	69.6	69.6	69.6	45	47.3	1	3	90	0.00	30.053 
10:35	69.8	69.8	69.8	42	45.7	1	5	90	0.00	30.053 
10:40	69.9	69.9	69.9	41	45.1	2	6	112	0.00	30.053 
10:45	70.3	70.3	70.3	42	46.1	1	4	112	0.00	30.054 
10:50	70.4	70.4	70.4	43	46.8	0	3	112	0.00	30.054 
10:55	70.4	70.4	70.4	43	46.8	1	5	112	0.00	30.054 
11:00	70.8	70.8	70.8	46	49.0	2	5	112	0.00	30.054 
11:05	70.6	70.6	70.6	43	47.0	1	5	112	0.00	30.054 
11:10	70.6	70.6	70.6	44	47.6	1	4	158	0.00	30.054 
11:15	70.8	70.8	70.8	41	45.9	1	4	270	0.00	30.062 
11:20	70.1	70.1	70.1	41	45.3	0	3	270	0.00	30.062 
11:25	70.6	70.6	70.6	43	47.0	1	3	270	0.00	30.062 
11:30	71.3	71.3	71.3	42	47.0	0	4	158	0.00	30.067 
11:35	71.1	71.1	71.1	39	44.9	1	4	68	0.00	30.067 
11:40	71.3	71.3	71.3	43	47.6	1	4	112	0.00	30.067 
11:45	71.8	71.8	71.8	43	48.1	2	4	112	0.00	30.071 
11:50	72.1	72.1	72.1	41	47.1	2	5	112	0.00	30.071 
11:55	72.3	72.3	72.3	43	48.5	1	3	112	0.00	30.071 
12:00	72.7	72.7	72.7	42	48.3	1	4	112	0.00	30.070 
12:05	72.7	72.7	72.7	44	49.5	1	5	112	0.00	30.070 
12:10	72.1	72.1	72.1	38	45.1	1	2	202	0.00	30.070 
12:15	71.8	71.8	71.8	44	48.7	0	2	202	0.00	30.079 
12:20	72.1	72.1	72.1	43	48.4	2	7	112	0.00	30.079 
12:25	72.1	72.1	72.1	39	45.8	2	5	112	0.00	30.079 
12:30	72.3	72.3	72.3	41	47.3	2	7	90	0.00	30.081 
12:35	72.7	72.7	72.7	43	48.9	1	3	68	0.00	30.081 
12:40	73.0	73.0	73.0	44	49.8	1	4	112	0.00	30.081 
12:45	73.2	73.2	73.2	44	50.0	1	5	112	0.00	30.080 
12:50	73.2	73.2	73.2	43	49.3	2	5	90	0.00	30.080 
12:55	73.0	73.0	73.0	45	50.4	1	4	270	0.00	30.080 
13:00	73.2	73.2	73.2	39	46.7	2	6	112	0.00	30.081 
13:05	73.3	73.3	73.3	41	48.2	1	7	112	0.00	30.081 
13:10	73.3	73.3	73.3	40	47.5	0	2	135	0.00	30.081 
13:15	73.2	73.2	73.2	40	47.4	1	2	135	0.00	30.081 
13:20	73.3	73.3	73.3	40	47.5	1	3	292	0.00	30.081 
13:25	73.9	73.9	73.9	46	51.8	1	3	90	0.00	30.081 
13:30	74.2	74.2	74.2	43	50.2	2	7	90	0.00	30.078 
13:35	74.0	74.0	74.0	39	47.5	2	6	112	0.00	30.078 
13:40	73.5	73.5	73.5	43	49.6	0	4	90	0.00	30.078 
13:45	73.7	73.7	73.7	43	49.8	1	5	90	0.00	30.080 
13:50	73.7	73.7	73.7	44	50.4	1	3	90	0.00	30.080 
13:55	73.5	73.5	73.5	38	46.3	1	4	90	0.00	30.080 
14:00	73.9	73.9	73.9	43	50.0	1	4	292	0.00	30.080 
14:05	74.0	74.0	74.0	46	51.9	1	4	292	0.00	30.080 
14:10	74.4	74.4	74.4	41	49.1	1	3	292	0.00	30.080 
14:15	74.4	74.4	74.4	37	46.4	1	3	270	0.00	30.080 
14:20	73.5	73.5	73.5	42	49.0	0	2	270	0.00	30.080 
14:25	73.0	73.0	73.0	41	47.9	0	4	135	0.00	30.080 
14:30	73.2	73.2	73.2	44	50.0	0	2	338	0.00	30.086 
14:35	73.9	73.9	73.9	42	49.3	1	2	22	0.00	30.086 
14:40	73.9	73.9	73.9	42	49.3	1	4	135	0.00	30.086 
14:45	73.9	73.9	73.9	45	51.2	1	4	135	0.00	30.093 
14:50	74.2	74.2	74.2	42	49.6	0	2	248	0.00	30.093 
14:55	74.4	74.4	74.4	40	48.5	1	5	90	0.00	30.093 
15:00	73.5	73.5	73.5	41	48.3	1	3	315	0.00	30.093 
15:05	72.8	72.8	72.8	41	47.7	1	3	315	0.00	30.093 
15:10	73.5	73.5	73.5	40	47.7	1	3	90	0.00	30.093 
15:15	74.2	74.2	74.2	43	50.2	0	3	315	0.00	30.096 
15:20	74.4	74.4	74.4	42	49.8	1	4	292	0.00	30.096 
15:25	74.0	74.0	74.0	41	48.8	1	3	292	0.00	30.096 
15:30	73.9	73.9	73.9	43	50.0	1	4	292	0.00	30.097 
15:35	74.2	74.2	74.2	43	50.2	0	2	45	0.00	30.097 
15:40	74.4	74.4	74.4	39	47.8	1	4	270	0.00	30.097 
15:45	74.4	74.4	74.4	43	50.4	1	3	270	0.00	30.096 
15:50	74.7	74.7	74.7	43	50.7	1	3	292	0.00	30.096 
15:55	74.6	74.6	74.6	41	49.3	1	3	292	0.00	30.096 
16:00	73.9	73.9	73.9	43	50.0	1	3	292	0.00	30.095 
16:05	73.9	73.9	73.9	40	48.0	0	2	292	0.00	30.095 
16:10	74.4	74.4	74.4	40	48.5	1	3	292	0.00	30.095 
16:15	73.7	73.7	73.7	41	48.5	1	4	292	0.00	30.098 
16:20	72.8	72.8	72.8	44	49.6	0	2	292	0.00	30.098 
16:25	72.0	72.0	72.0	44	48.9	0	2	292	0.00	30.098 
16:30	71.5	71.5	71.5	45	49.0	0	1	292	0.00	30.098 
16:35	72.0	72.0	72.0	50	52.3	0	2	292	0.00	30.098 
16:40	73.0	73.0	73.0	44	49.8	0	2	292	0.00	30.098 
16:45	72.8	72.8	72.8	45	50.2	0	1	292	0.00	30.096 
16:50	73.0	73.0	73.0	46	51.0	0	2	0	0.00	30.096 
16:55	73.5	73.5	73.5	43	49.6	0	1	0	0.00	30.096 
17:00	73.0	73.0	73.0	43	49.2	0	1	0	0.00	30.097 
17:05	72.5	72.5	72.5	42	48.1	0	1	0	0.00	30.097 
17:10	73.2	73.2	73.2	46	51.2	0	4	112	0.00	30.097 
17:15	73.2	73.2	73.2	44	50.0	0	2	112	0.00	30.096 
17:20	72.5	72.5	72.5	44	49.3	0	2	112	0.00	30.096 
17:25	71.8	71.8	71.8	45	49.3	0	2	112	0.00	30.096 
17:30	72.5	72.5	72.5	44	49.3	0	2	112	0.00	30.096 
17:35	72.3	72.3	72.3	45	49.8	0	1	112	0.00	30.096 
17:40	72.3	72.3	72.3	46	50.3	0	1	112	0.00	30.096 
17:45	72.8	72.8	72.8	45	50.2	0	4	112	0.00	30.093 
17:50	73.3	73.3	73.3	46	51.3	1	3	112	0.00	30.093 
17:55	74.0	74.0	74.0	41	48.8	1	4	112	0.00	30.093 
18:00	74.0	74.0	74.0	41	48.8	0	2	270	0.00	30.089 
18:05	73.9	73.9	73.9	40	48.0	0	2	270	0.00	30.089 
18:10	73.9	73.9	73.9	41	48.7	1	3	292	0.00	30.089 
18:15	73.9	73.9	73.9	42	49.3	1	4	270	0.00	30.088 
18:20	74.0	74.0	74.0	41	48.8	1	3	292	0.00	30.088 
18:25	74.0	74.0	74.0	39	47.5	1	3	292	0.00	30.088 
18:30	73.7	73.7	73.7	40	47.9	1	4	270	0.00	30.088 
18:35	73.7	73.7	73.7	40	47.9	0	3	292	0.00	30.088 
18:40	73.5	73.5	73.5	43	49.6	1	3	292	0.00	30.088 
18:45	73.5	73.5	73.5	41	48.3	0	3	292	0.00	30.090 
18:50	73.2	73.2	73.2	41	48.1	0	3	315	0.00	30.090 
18:55	73.2	73.2	73.2	41	48.1	1	3	315	0.00	30.090 
19:00	73.0	73.0	73.0	40	47.2	0	2	315	0.00	30.095 
19:05	72.8	72.8	72.8	41	47.7	0	2	315	0.00	30.095 
19:10	72.7	72.7	72.7	42	48.3	0	1	315	0.00	30.095 
19:15	72.7	72.7	72.7	41	47.6	1	3	315	0.00	30.095 
19:20	72.7	72.7	72.7	43	48.9	0	2	315	0.00	30.095 
19:25	72.5	72.5	72.5	41	47.4	0	3	270	0.00	30.095 
19:30	72.5	72.5	72.5	43	48.7	0	1	315	0.00	30.097 
19:35	72.3	72.3	72.3	45	49.8	0	2	292	0.00	30.097 
19:40	72.1	72.1	72.1	45	49.6	0	1	292	0.00	30.097 
19:45	72.0	72.0	72.0	46	50.1	0	2	292	0.00	30.099 
19:50	71.8	71.8	71.8	44	48.7	0	2	292	0.00	30.099 
19:55	71.8	71.8	71.8	46	49.9	0	1	292	0.00	30.099 
20:00	71.8	71.8	71.8	44	48.7	0	4	270	0.00	30.098 
20:05	71.6	71.6	71.6	46	49.7	0	1	270	0.00	30.098 
20:10	71.3	71.3	71.3	47	50.0	0	2	270	0.00	30.098 
20:15	70.9	70.9	70.9	48	50.2	0	1	270	0.00	30.102 
20:20	70.4	70.4	70.4	48	49.8	0	3	292	0.00	30.102 
20:25	70.3	70.3	70.3	49	50.2	0	1	292	0.00	30.102 
20:30	69.9	69.9	69.9	48	49.3	0	1	292	0.00	30.102 
20:35	69.8	69.8	69.8	50	50.3	0	1	292	0.00	30.102 
20:40	69.4	69.4	69.4	50	49.9	0	1	292	0.00	30.102 
20:45	69.3	69.3	69.3	49	49.3	0	3	292	0.00	30.106 
20:50	68.9	68.9	68.9	50	49.5	0	1	292	0.00	30.106 
20:55	68.8	68.8	68.8	50	49.4	0	1	292	0.00	30.106 
21:00	68.4	68.4	68.4	51	49.6	0	1	292	0.00	30.106 
21:05	68.3	68.3	68.3	51	49.5	0	1	292	0.00	30.106 
21:10	67.8	67.8	67.8	53	50.0	0	0	---	0.00	30.106 
21:15	67.4	67.4	67.4	52	49.2	0	1	292	0.00	30.105 
21:20	67.1	67.1	67.1	53	49.4	0	1	292	0.00	30.105 
21:25	66.9	66.9	66.9	54	49.7	0	1	292	0.00	30.105 
21:30	66.8	66.8	66.8	54	49.6	0	0	---	0.00	30.106 
21:35	66.4	66.4	66.4	54	49.2	0	1	292	0.00	30.106 
21:40	66.3	66.3	66.3	54	49.1	0	1	292	0.00	30.106 
21:45	66.1	66.1	66.1	54	49.0	0	1	292	0.00	30.111 
21:50	65.8	65.8	65.8	55	49.2	0	0	---	0.00	30.111 
21:55	65.5	65.5	65.5	56	49.4	0	0	---	0.00	30.111 
22:00	65.2	65.2	65.2	56	49.1	0	0	---	0.00	30.115 
22:05	65.0	65.0	65.0	57	49.4	0	0	---	0.00	30.115 
22:10	64.7	64.7	64.7	58	49.6	0	0	---	0.00	30.115 
22:15	64.3	64.3	64.3	58	49.2	0	0	---	0.00	30.116 
22:20	64.2	64.2	64.2	59	49.6	0	0	---	0.00	30.116 
22:25	63.9	63.9	63.9	60	49.7	0	0	---	0.00	30.116 
22:30	63.5	63.5	63.5	61	49.8	0	0	---	0.00	30.121 
22:35	63.2	63.2	63.2	61	49.5	0	0	---	0.00	30.121 
22:40	63.1	63.1	63.1	61	49.4	0	0	---	0.00	30.121 
22:45	62.9	62.9	62.9	61	49.2	0	0	---	0.00	30.126 
22:50	62.7	62.7	62.7	61	49.1	0	0	---	0.00	30.126 
22:55	62.6	62.6	62.6	61	49.0	0	0	---	0.00	30.126 
23:00	62.4	62.4	62.4	62	49.2	0	0	---	0.00	30.135 
23:05	62.1	62.1	62.1	62	48.9	0	0	---	0.00	30.135 
23:10	62.0	62.0	62.0	63	49.3	0	0	---	0.00	30.135 
23:15	61.8	61.8	61.8	64	49.5	0	0	---	0.00	30.135 
23:20	61.5	61.5	61.5	64	49.2	0	0	---	0.00	30.135 
23:25	61.3	61.3	61.3	64	49.0	0	0	---	0.00	30.135 
23:30	61.0	61.0	61.0	65	49.1	0	0	---	0.00	30.144 
23:35	60.7	60.7	60.7	65	48.9	0	0	---	0.00	30.144 
23:40	60.5	60.5	60.5	66	49.1	0	0	---	0.00	30.144 
23:45	60.2	60.2	60.2	66	48.8	0	0	---	0.00	30.148 
23:50	59.9	59.9	59.9	66	48.5	0	1	292	0.00	30.148 
23:55	59.8	59.8	59.8	66	48.4	0	0	---	0.00	30.148 

CoCoRaHS
IN-AL-39
A2 Web Hosting
Creative Commons License
GoDaddy
search engine by freefind advanced

loaded 2018-11-19 10:18:52 • last modified 2010-11-18 10:43:29
Privacy PolicyDisclaimer
• wx.awcolley.com is powered by PmWiki v.2002016 •
• all content (unless otherwise noted) © 2018 A W Colley